createdAt,value
2019-03-20T00:00:41.338Z,1028.43
2019-03-20T00:01:44.006Z,1028.47
2019-03-20T00:02:43.479Z,1028.53
2019-03-20T00:03:44.053Z,1028.52
2019-03-20T00:04:49.810Z,1028.52
2019-03-20T00:05:46.192Z,1028.51
2019-03-20T00:06:46.766Z,1028.55
2019-03-20T00:07:47.391Z,1028.53
2019-03-20T00:08:48.015Z,1028.59
2019-03-20T00:09:48.836Z,1028.55
2019-03-20T00:10:49.409Z,1028.53
2019-03-20T00:11:49.982Z,1028.51
2019-03-20T00:12:50.555Z,1028.55
2019-03-20T00:13:51.130Z,1028.62
2019-03-20T00:14:51.751Z,1028.55
2019-03-20T00:15:52.372Z,1028.59
2019-03-20T00:16:52.943Z,1028.61
2019-03-20T00:17:53.565Z,1028.53
2019-03-20T00:18:54.138Z,1028.55
2019-03-20T00:19:54.710Z,1028.57
2019-03-20T00:20:55.283Z,1028.58
2019-03-20T00:21:55.853Z,1028.53
2019-03-20T00:22:56.426Z,1028.54
2019-03-20T00:23:56.997Z,1028.58
2019-03-20T00:24:57.623Z,1028.52
2019-03-20T00:25:58.243Z,1028.53
2019-03-20T00:26:58.863Z,1028.50
2019-03-20T00:27:59.439Z,1028.56
2019-03-20T00:29:00.013Z,1028.58
2019-03-20T00:30:00.586Z,1028.51
2019-03-20T00:31:01.260Z,1028.48
2019-03-20T00:32:01.832Z,1028.52
2019-03-20T00:33:02.506Z,1028.50
2019-03-20T00:34:03.330Z,1028.55
2019-03-20T00:35:03.956Z,1028.54
2019-03-20T00:36:04.524Z,1028.53
2019-03-20T00:37:05.101Z,1028.49
2019-03-20T00:38:05.722Z,1028.51
2019-03-20T00:39:06.345Z,1028.54
2019-03-20T00:40:06.920Z,1028.47
2019-03-20T00:41:07.493Z,1028.46
2019-03-20T00:42:08.268Z,1028.45
2019-03-20T00:43:08.838Z,1028.51
2019-03-20T00:44:09.410Z,1028.50
2019-03-20T00:45:09.986Z,1028.45
2019-03-20T00:46:10.599Z,1028.51
2019-03-20T00:47:11.173Z,1028.43
2019-03-20T00:48:11.746Z,1028.46
2019-03-20T00:49:12.368Z,1028.52
2019-03-20T00:50:12.991Z,1028.46
2019-03-20T00:51:13.563Z,1028.45
2019-03-20T00:52:14.135Z,1028.52
2019-03-20T00:53:14.708Z,1028.55
2019-03-20T00:54:15.277Z,1028.51
2019-03-20T00:55:15.855Z,1028.56
2019-03-20T00:56:16.463Z,1028.65
2019-03-20T00:57:17.039Z,1028.62
2019-03-20T00:58:17.610Z,1028.68
2019-03-20T00:59:18.185Z,1028.66
2019-03-20T01:00:18.757Z,1028.66
2019-03-20T01:01:19.339Z,1028.67
2019-03-20T01:02:19.961Z,1028.68
2019-03-20T01:03:20.532Z,1028.65
2019-03-20T01:04:21.106Z,1028.70
2019-03-20T01:05:21.690Z,1028.71
2019-03-20T01:06:22.301Z,1028.77
2019-03-20T01:07:22.873Z,1028.69
2019-03-20T01:08:23.442Z,1028.72
2019-03-20T01:09:24.017Z,1028.68
2019-03-20T01:10:24.589Z,1028.75
2019-03-20T01:11:25.160Z,1028.73
2019-03-20T01:12:25.782Z,1028.74
2019-03-20T01:13:26.354Z,1028.71
2019-03-20T01:14:26.924Z,1028.72
2019-03-20T01:15:27.503Z,1028.73
2019-03-20T01:16:28.073Z,1028.76
2019-03-20T01:17:28.651Z,1028.76
2019-03-20T01:18:29.273Z,1028.75
2019-03-20T01:19:29.885Z,1028.77
2019-03-20T01:20:30.456Z,1028.72
2019-03-20T01:21:31.078Z,1028.76
2019-03-20T01:22:31.650Z,1028.81
2019-03-20T01:23:32.223Z,1028.76
2019-03-20T01:24:32.794Z,1028.77
2019-03-20T01:25:35.215Z,1028.82
2019-03-20T01:26:35.011Z,1028.79
2019-03-20T01:27:35.557Z,1028.75
2019-03-20T01:28:36.128Z,1028.79
2019-03-20T01:29:36.703Z,1028.78
2019-03-20T01:30:37.276Z,1028.75
2019-03-20T01:31:37.848Z,1028.69
2019-03-20T01:32:38.422Z,1028.65
2019-03-20T01:33:38.994Z,1028.70
2019-03-20T01:34:39.617Z,1028.67
2019-03-20T01:35:40.192Z,1028.69
2019-03-20T01:36:40.761Z,1028.70
2019-03-20T01:37:41.334Z,1028.69
2019-03-20T01:38:42.057Z,1028.69
2019-03-20T01:39:42.670Z,1028.70
2019-03-20T01:40:43.242Z,1028.75
2019-03-20T01:41:43.816Z,1028.75
2019-03-20T01:42:44.388Z,1028.78
2019-03-20T01:43:44.963Z,1028.70
2019-03-20T01:44:45.537Z,1028.72
2019-03-20T01:45:46.159Z,1028.67
2019-03-20T01:46:46.781Z,1028.63
2019-03-20T01:47:47.353Z,1028.72
2019-03-20T01:48:47.928Z,1028.68
2019-03-20T01:49:48.595Z,1028.57
2019-03-20T01:50:49.166Z,1028.68
2019-03-20T01:51:49.828Z,1028.71
2019-03-20T01:52:50.403Z,1028.70
2019-03-20T01:53:50.977Z,1028.74
2019-03-20T01:54:51.550Z,1028.70
2019-03-20T01:55:52.123Z,1028.67
2019-03-20T01:56:52.702Z,1028.64
2019-03-20T01:57:53.278Z,1028.72
2019-03-20T01:58:53.855Z,1028.70
2019-03-20T01:59:54.464Z,1028.65
2019-03-20T02:00:55.038Z,1028.68
2019-03-20T02:01:55.663Z,1028.70
2019-03-20T02:02:56.239Z,1028.64
2019-03-20T02:03:56.807Z,1028.72
2019-03-20T02:04:57.380Z,1028.75
2019-03-20T02:05:58.002Z,1028.63
2019-03-20T02:06:58.582Z,1028.76
2019-03-20T02:07:59.185Z,1028.66
2019-03-20T02:08:59.811Z,1028.70
2019-03-20T02:10:00.364Z,1028.64
2019-03-20T02:11:00.915Z,1028.70
2019-03-20T02:12:01.484Z,1028.64
2019-03-20T02:13:02.058Z,1028.68
2019-03-20T02:14:03.428Z,1028.67
2019-03-20T02:15:03.999Z,1028.57
2019-03-20T02:16:04.574Z,1028.58
2019-03-20T02:17:05.192Z,1028.54
2019-03-20T02:18:05.767Z,1028.62
2019-03-20T02:19:06.378Z,1028.49
2019-03-20T02:20:06.948Z,1028.53
2019-03-20T02:21:07.571Z,1028.55
2019-03-20T02:22:08.143Z,1028.60
2019-03-20T02:23:08.717Z,1028.53
2019-03-20T02:24:09.287Z,1028.61
2019-03-20T02:25:09.860Z,1028.57
2019-03-20T02:26:10.431Z,1028.55
2019-03-20T02:27:11.011Z,1028.58
2019-03-20T02:28:11.629Z,1028.58
2019-03-20T02:29:12.201Z,1028.51
2019-03-20T02:30:12.772Z,1028.51
2019-03-20T02:31:13.396Z,1028.59
2019-03-20T02:32:13.968Z,1028.57
2019-03-20T02:33:14.585Z,1028.59
2019-03-20T02:34:15.155Z,1028.54
2019-03-20T02:35:15.729Z,1028.63
2019-03-20T02:36:16.350Z,1028.55
2019-03-20T02:37:16.923Z,1028.57
2019-03-20T02:38:17.493Z,1028.53
2019-03-20T02:39:18.066Z,1028.47
2019-03-20T02:40:18.639Z,1028.62
2019-03-20T02:41:19.262Z,1028.58
2019-03-20T02:42:19.880Z,1028.57
2019-03-20T02:43:20.454Z,1028.56
2019-03-20T02:44:21.039Z,1028.56
2019-03-20T02:45:21.654Z,1028.52
2019-03-20T02:46:22.412Z,1028.60
2019-03-20T02:47:22.959Z,1028.60
2019-03-20T02:48:23.535Z,1028.60
2019-03-20T02:49:24.099Z,1028.53
2019-03-20T02:50:24.761Z,1028.63
2019-03-20T02:51:25.331Z,1028.60
2019-03-20T02:52:25.956Z,1028.55
2019-03-20T02:53:26.530Z,1028.52
2019-03-20T02:54:27.099Z,1028.58
2019-03-20T02:55:27.671Z,1028.63
2019-03-20T02:56:28.292Z,1028.52
2019-03-20T02:57:28.904Z,1028.54
2019-03-20T02:58:29.476Z,1028.54
2019-03-20T02:59:30.055Z,1028.57
2019-03-20T03:00:30.669Z,1028.50
2019-03-20T03:01:31.290Z,1028.49
2019-03-20T03:02:31.858Z,1028.57
2019-03-20T03:03:32.429Z,1028.49
2019-03-20T03:04:33.001Z,1028.53
2019-03-20T03:05:33.574Z,1028.49
2019-03-20T03:06:34.147Z,1028.55
2019-03-20T03:07:34.721Z,1028.53
2019-03-20T03:08:35.296Z,1028.50
2019-03-20T03:09:35.863Z,1028.50
2019-03-20T03:10:36.493Z,1028.49
2019-03-20T03:11:37.061Z,1028.51
2019-03-20T03:12:37.684Z,1028.48
2019-03-20T03:13:38.452Z,1028.44
2019-03-20T03:14:39.028Z,1028.37
2019-03-20T03:15:39.689Z,1028.43
2019-03-20T03:16:40.262Z,1028.45
2019-03-20T03:17:40.833Z,1028.43
2019-03-20T03:18:41.460Z,1028.42
2019-03-20T03:19:42.029Z,1028.44
2019-03-20T03:20:42.602Z,1028.47
2019-03-20T03:21:43.173Z,1028.45
2019-03-20T03:22:43.753Z,1028.53
2019-03-20T03:23:44.320Z,1028.44
2019-03-20T03:24:44.891Z,1028.47
2019-03-20T03:25:45.464Z,1028.41
2019-03-20T03:26:46.037Z,1028.43
2019-03-20T03:27:46.611Z,1028.44
2019-03-20T03:28:47.184Z,1028.39
2019-03-20T03:29:47.806Z,1028.30
2019-03-20T03:30:48.381Z,1028.39
2019-03-20T03:31:49.002Z,1028.39
2019-03-20T03:32:49.580Z,1028.43
2019-03-20T03:33:50.233Z,1028.38
2019-03-20T03:34:50.850Z,1028.36
2019-03-20T03:35:51.471Z,1028.36
2019-03-20T03:36:52.042Z,1028.39
2019-03-20T03:37:52.614Z,1028.45
2019-03-20T03:38:53.189Z,1028.42
2019-03-20T03:39:53.761Z,1028.36
2019-03-20T03:40:54.375Z,1028.40
2019-03-20T03:41:54.951Z,1028.42
2019-03-20T03:42:55.519Z,1028.45
2019-03-20T03:43:56.142Z,1028.39
2019-03-20T03:45:01.818Z,1028.39
2019-03-20T03:46:02.423Z,1028.32
2019-03-20T03:47:02.992Z,1028.37
2019-03-20T03:48:03.620Z,1028.33
2019-03-20T03:49:04.187Z,1028.29
2019-03-20T03:50:04.761Z,1028.39
2019-03-20T03:51:05.353Z,1028.36
2019-03-20T03:52:05.903Z,1028.34
2019-03-20T03:53:06.481Z,1028.34
2019-03-20T03:54:07.052Z,1028.29
2019-03-20T03:55:07.626Z,1028.28
2019-03-20T03:56:08.243Z,1028.29
2019-03-20T03:57:08.817Z,1028.33
2019-03-20T03:58:09.392Z,1028.22
2019-03-20T03:59:09.963Z,1028.23
2019-03-20T04:00:10.537Z,1028.26
2019-03-20T04:01:11.130Z,1028.28
2019-03-20T04:02:11.685Z,1028.26
2019-03-20T04:03:12.255Z,1028.26
2019-03-20T04:04:12.890Z,1028.30
2019-03-20T04:05:13.495Z,1028.27
2019-03-20T04:06:14.070Z,1028.29
2019-03-20T04:07:14.645Z,1028.24
2019-03-20T04:08:15.306Z,1028.27
2019-03-20T04:09:15.883Z,1028.22
2019-03-20T04:10:16.451Z,1028.28
2019-03-20T04:11:17.038Z,1028.33
2019-03-20T04:12:17.648Z,1028.26
2019-03-20T04:13:18.212Z,1028.29
2019-03-20T04:14:18.786Z,1028.24
2019-03-20T04:15:19.419Z,1028.22
2019-03-20T04:16:19.980Z,1028.21
2019-03-20T04:17:20.552Z,1028.24
2019-03-20T04:18:21.129Z,1028.16
2019-03-20T04:19:21.694Z,1028.18
2019-03-20T04:20:22.365Z,1028.24
2019-03-20T04:21:22.964Z,1028.17
2019-03-20T04:22:23.588Z,1028.14
2019-03-20T04:23:24.208Z,1028.17
2019-03-20T04:24:24.798Z,1028.17
2019-03-20T04:25:25.370Z,1028.21
2019-03-20T04:26:25.941Z,1028.18
2019-03-20T04:27:26.520Z,1028.23
2019-03-20T04:28:27.090Z,1028.21
2019-03-20T04:29:27.657Z,1028.15
2019-03-20T04:30:28.234Z,1028.17
2019-03-20T04:31:28.856Z,1028.22
2019-03-20T04:32:29.467Z,1028.27
2019-03-20T04:33:30.040Z,1028.24
2019-03-20T04:34:30.663Z,1028.20
2019-03-20T04:35:31.235Z,1028.23
2019-03-20T04:36:31.849Z,1028.27
2019-03-20T04:37:32.477Z,1028.22
2019-03-20T04:38:33.041Z,1028.16
2019-03-20T04:39:33.613Z,1028.16
2019-03-20T04:40:34.187Z,1028.18
2019-03-20T04:41:34.766Z,1028.13
2019-03-20T04:42:35.372Z,1028.22
2019-03-20T04:43:35.948Z,1028.23
2019-03-20T04:44:36.517Z,1028.19
2019-03-20T04:45:37.092Z,1028.21
2019-03-20T04:46:37.664Z,1028.27
2019-03-20T04:47:38.236Z,1028.27
2019-03-20T04:48:38.861Z,1028.25
2019-03-20T04:49:39.484Z,1028.22
2019-03-20T04:50:40.057Z,1028.29
2019-03-20T04:51:40.630Z,1028.26
2019-03-20T04:52:41.203Z,1028.21
2019-03-20T04:53:41.775Z,1028.26
2019-03-20T04:54:42.350Z,1028.20
2019-03-20T04:55:42.923Z,1028.31
2019-03-20T04:56:43.548Z,1028.24
2019-03-20T04:57:45.862Z,1028.30
2019-03-20T04:58:45.685Z,1028.28
2019-03-20T04:59:46.257Z,1028.21
2019-03-20T05:00:46.879Z,1028.22
2019-03-20T05:01:47.453Z,1028.33
2019-03-20T05:02:48.029Z,1028.35
2019-03-20T05:03:48.601Z,1028.23
2019-03-20T05:04:49.227Z,1028.35
2019-03-20T05:05:49.799Z,1028.28
2019-03-20T05:06:58.380Z,1028.30
2019-03-20T05:07:51.034Z,1028.20
2019-03-20T05:08:51.656Z,1028.28
2019-03-20T05:09:52.230Z,1028.32
2019-03-20T05:10:52.806Z,1028.29
2019-03-20T05:11:53.379Z,1028.29
2019-03-20T05:12:53.981Z,1028.34
2019-03-20T05:13:54.529Z,1028.27
2019-03-20T05:14:55.103Z,1028.34
2019-03-20T05:15:55.729Z,1028.38
2019-03-20T05:16:56.341Z,1028.35
2019-03-20T05:17:56.965Z,1028.43
2019-03-20T05:18:57.540Z,1028.42
2019-03-20T05:19:58.113Z,1028.31
2019-03-20T05:20:58.687Z,1028.44
2019-03-20T05:21:59.312Z,1028.41
2019-03-20T05:22:59.885Z,1028.38
2019-03-20T05:24:00.509Z,1028.46
2019-03-20T05:25:01.082Z,1028.39
2019-03-20T05:26:01.655Z,1028.42
2019-03-20T05:27:02.229Z,1028.44
2019-03-20T05:28:02.801Z,1028.43
2019-03-20T05:29:03.378Z,1028.43
2019-03-20T05:30:03.990Z,1028.46
2019-03-20T05:31:04.565Z,1028.48
2019-03-20T05:32:05.179Z,1028.47
2019-03-20T05:33:05.802Z,1028.45
2019-03-20T05:34:06.424Z,1028.49
2019-03-20T05:35:07.048Z,1028.42
2019-03-20T05:36:07.620Z,1028.57
2019-03-20T05:37:10.599Z,1028.51
2019-03-20T05:38:09.766Z,1028.53
2019-03-20T05:39:10.374Z,1028.48
2019-03-20T05:40:10.997Z,1028.48
2019-03-20T05:41:11.562Z,1028.52
2019-03-20T05:42:12.137Z,1028.40
2019-03-20T05:43:12.759Z,1028.49
2019-03-20T05:44:13.332Z,1028.58
2019-03-20T05:45:13.903Z,1028.53
2019-03-20T05:46:14.477Z,1028.55
2019-03-20T05:47:15.051Z,1028.58
2019-03-20T05:48:15.625Z,1028.59
2019-03-20T05:49:16.198Z,1028.51
2019-03-20T05:50:16.821Z,1028.52
2019-03-20T05:51:17.394Z,1028.52
2019-03-20T05:52:18.017Z,1028.52
2019-03-20T05:53:18.643Z,1028.56
2019-03-20T05:54:19.215Z,1028.56
2019-03-20T05:55:19.791Z,1028.55
2019-03-20T05:56:20.361Z,1028.53
2019-03-20T05:57:20.936Z,1028.46
2019-03-20T05:58:21.507Z,1028.44
2019-03-20T05:59:22.082Z,1028.64
2019-03-20T06:00:22.656Z,1028.60
2019-03-20T06:01:23.230Z,1028.62
2019-03-20T06:02:25.728Z,1028.64
2019-03-20T06:03:25.369Z,1028.56
2019-03-20T06:04:25.945Z,1028.61
2019-03-20T06:05:26.518Z,1028.61
2019-03-20T06:06:27.105Z,1028.61
2019-03-20T06:07:27.706Z,1028.63
2019-03-20T06:08:28.329Z,1028.66
2019-03-20T06:09:28.951Z,1028.58
2019-03-20T06:10:29.525Z,1028.60
2019-03-20T06:11:30.102Z,1028.64
2019-03-20T06:12:30.676Z,1028.62
2019-03-20T06:13:31.254Z,1028.60
2019-03-20T06:14:31.872Z,1028.72
2019-03-20T06:15:32.446Z,1028.73
2019-03-20T06:16:33.019Z,1028.64
2019-03-20T06:17:33.591Z,1028.71
2019-03-20T06:18:34.165Z,1028.71
2019-03-20T06:19:34.794Z,1028.76
2019-03-20T06:20:35.403Z,1028.78
2019-03-20T06:21:35.974Z,1028.80
2019-03-20T06:22:36.546Z,1028.74
2019-03-20T06:23:37.169Z,1028.72
2019-03-20T06:24:37.742Z,1028.79
2019-03-20T06:25:38.316Z,1028.79
2019-03-20T06:26:38.896Z,1028.79
2019-03-20T06:27:39.502Z,1028.81
2019-03-20T06:28:40.076Z,1028.81
2019-03-20T06:29:40.649Z,1028.86
2019-03-20T06:30:41.332Z,1028.86
2019-03-20T06:31:41.947Z,1028.91
2019-03-20T06:32:42.520Z,1028.86
2019-03-20T06:33:43.093Z,1028.89
2019-03-20T06:34:43.765Z,1028.84
2019-03-20T06:35:44.338Z,1028.89
2019-03-20T06:36:44.911Z,1028.93
2019-03-20T06:37:45.483Z,1028.93
2019-03-20T06:38:46.055Z,1028.88
2019-03-20T06:39:46.628Z,1028.88
2019-03-20T06:40:47.201Z,1028.85
2019-03-20T06:41:47.877Z,1028.83
2019-03-20T06:42:48.492Z,1028.83
2019-03-20T06:43:49.065Z,1028.91
2019-03-20T06:44:49.639Z,1028.83
2019-03-20T06:45:50.261Z,1028.93
2019-03-20T06:46:50.834Z,1028.89
2019-03-20T06:47:51.406Z,1028.78
2019-03-20T06:48:52.030Z,1028.95
2019-03-20T06:49:52.604Z,1028.98
2019-03-20T06:50:53.220Z,1028.91
2019-03-20T06:51:53.840Z,1028.96
2019-03-20T06:52:54.461Z,1028.97
2019-03-20T06:53:55.037Z,1028.98
2019-03-20T06:54:55.708Z,1029.04
2019-03-20T06:55:56.283Z,1028.95
2019-03-20T06:56:56.859Z,1029.03
2019-03-20T06:57:57.434Z,1028.98
2019-03-20T06:58:58.007Z,1029.11
2019-03-20T06:59:58.580Z,1029.15
2019-03-20T07:00:59.158Z,1029.12
2019-03-20T07:01:59.728Z,1029.15
2019-03-20T07:03:00.302Z,1029.11
2019-03-20T07:04:00.874Z,1029.08
2019-03-20T07:05:01.451Z,1029.05
2019-03-20T07:06:02.116Z,1029.16
2019-03-20T07:07:02.689Z,1029.15
2019-03-20T07:08:03.266Z,1029.18
2019-03-20T07:09:03.838Z,1029.14
2019-03-20T07:10:04.413Z,1029.25
2019-03-20T07:11:04.987Z,1029.18
2019-03-20T07:12:05.559Z,1029.16
2019-03-20T07:13:06.183Z,1029.20
2019-03-20T07:14:06.754Z,1029.22
2019-03-20T07:15:07.416Z,1029.18
2019-03-20T07:16:07.989Z,1029.25
2019-03-20T07:17:08.571Z,1029.26
2019-03-20T07:18:09.177Z,1029.21
2019-03-20T07:19:09.747Z,1029.31
2019-03-20T07:20:10.322Z,1029.25
2019-03-20T07:21:10.895Z,1029.26
2019-03-20T07:22:11.467Z,1029.33
2019-03-20T07:23:12.189Z,1029.35
2019-03-20T07:24:12.761Z,1029.36
2019-03-20T07:25:13.337Z,1029.42
2019-03-20T07:26:13.909Z,1029.42
2019-03-20T07:27:14.531Z,1029.42
2019-03-20T07:28:15.154Z,1029.38
2019-03-20T07:29:15.727Z,1029.41
2019-03-20T07:30:16.301Z,1029.44
2019-03-20T07:31:16.924Z,1029.47
2019-03-20T07:32:17.497Z,1029.40
2019-03-20T07:33:18.072Z,1029.39
2019-03-20T07:34:18.645Z,1029.48
2019-03-20T07:35:19.216Z,1029.46
2019-03-20T07:36:19.790Z,1029.44
2019-03-20T07:37:20.412Z,1029.39
2019-03-20T07:38:20.983Z,1029.55
2019-03-20T07:39:21.607Z,1029.49
2019-03-20T07:40:22.179Z,1029.48
2019-03-20T07:41:22.807Z,1029.64
2019-03-20T07:42:23.428Z,1029.55
2019-03-20T07:43:24.091Z,1029.66
2019-03-20T07:44:24.671Z,1029.65
2019-03-20T07:45:25.237Z,1029.59
2019-03-20T07:46:25.811Z,1029.70
2019-03-20T07:47:26.388Z,1029.76
2019-03-20T07:48:26.958Z,1029.72
2019-03-20T07:49:27.530Z,1029.65
2019-03-20T07:50:28.106Z,1029.63
2019-03-20T07:51:28.678Z,1029.63
2019-03-20T07:52:29.252Z,1029.69
2019-03-20T07:53:29.822Z,1029.75
2019-03-20T07:54:30.397Z,1029.79
2019-03-20T07:55:31.019Z,1029.76
2019-03-20T07:56:31.594Z,1029.70
2019-03-20T07:57:32.163Z,1029.72
2019-03-20T07:58:32.735Z,1029.79
2019-03-20T07:59:33.306Z,1029.84
2019-03-20T08:00:33.933Z,1029.95
2019-03-20T08:01:34.505Z,1029.81
2019-03-20T08:02:35.129Z,1029.84
2019-03-20T08:03:35.702Z,1029.78
2019-03-20T08:04:36.277Z,1029.90
2019-03-20T08:05:36.852Z,1029.99
2019-03-20T08:06:37.475Z,1030.01
2019-03-20T08:07:38.046Z,1029.90
2019-03-20T08:08:38.620Z,1029.99
2019-03-20T08:09:39.277Z,1030.04
2019-03-20T08:10:39.875Z,1030.01
2019-03-20T08:11:40.446Z,1030.12
2019-03-20T08:12:41.020Z,1030.06
2019-03-20T08:13:41.591Z,1030.12
2019-03-20T08:14:42.166Z,1030.07
2019-03-20T08:15:42.791Z,1030.01
2019-03-20T08:16:43.363Z,1030.04
2019-03-20T08:17:43.985Z,1030.09
2019-03-20T08:18:44.559Z,1030.10
2019-03-20T08:19:45.172Z,1030.02
2019-03-20T08:20:45.744Z,1030.03
2019-03-20T08:21:46.318Z,1030.09
2019-03-20T08:22:46.943Z,1030.06
2019-03-20T08:23:47.511Z,1030.02
2019-03-20T08:24:48.083Z,1030.02
2019-03-20T08:25:48.656Z,1029.98
2019-03-20T08:26:49.231Z,1030.04
2019-03-20T08:27:49.802Z,1030.06
2019-03-20T08:28:50.424Z,1030.06
2019-03-20T08:29:50.996Z,1030.06
2019-03-20T08:30:51.568Z,1030.04
2019-03-20T08:31:52.141Z,1030.03
2019-03-20T08:32:52.716Z,1030.05
2019-03-20T08:33:53.287Z,1030.03
2019-03-20T08:34:53.905Z,1030.04
2019-03-20T08:35:54.523Z,1030.09
2019-03-20T08:36:55.097Z,1030.09
2019-03-20T08:37:55.722Z,1030.05
2019-03-20T08:38:56.296Z,1029.98
2019-03-20T08:39:56.869Z,1030.04
2019-03-20T08:40:57.448Z,1030.02
2019-03-20T08:41:58.083Z,1030.05
2019-03-20T08:42:58.711Z,1030.09
2019-03-20T08:43:59.340Z,1030.04
2019-03-20T08:44:59.919Z,1030.04
2019-03-20T08:46:00.504Z,1030.14
2019-03-20T08:47:01.081Z,1030.00
2019-03-20T08:48:01.661Z,1030.04
2019-03-20T08:49:02.292Z,1030.05
2019-03-20T08:50:02.839Z,1029.99
2019-03-20T08:51:03.461Z,1030.04
2019-03-20T08:52:04.035Z,1030.04
2019-03-20T08:53:04.610Z,1030.06
2019-03-20T08:54:05.233Z,1030.04
2019-03-20T08:55:05.857Z,1030.07
2019-03-20T08:56:06.431Z,1030.06
2019-03-20T08:57:07.214Z,1030.04
2019-03-20T08:58:07.797Z,1030.07
2019-03-20T08:59:08.428Z,1030.03
2019-03-20T09:00:53.468Z,1029.97
2019-03-20T09:01:54.086Z,1029.99
2019-03-20T09:02:54.709Z,1030.04
2019-03-20T09:03:55.284Z,1030.16
2019-03-20T09:04:55.858Z,1030.11
2019-03-20T09:05:56.429Z,1030.06
2019-03-20T09:06:57.003Z,1030.11
2019-03-20T09:07:57.576Z,1030.12
2019-03-20T09:08:58.149Z,1030.10
2019-03-20T09:09:58.725Z,1030.06
2019-03-20T09:10:59.311Z,1030.16
2019-03-20T09:11:59.944Z,1030.14
2019-03-20T09:13:00.533Z,1030.11
2019-03-20T09:14:01.112Z,1030.12
2019-03-20T09:15:01.735Z,1030.07
2019-03-20T09:16:02.356Z,1030.09
2019-03-20T09:17:02.983Z,1030.08
2019-03-20T09:18:03.648Z,1030.10
2019-03-20T09:19:04.220Z,1030.09
2019-03-20T09:20:04.795Z,1030.15
2019-03-20T09:21:05.365Z,1030.17
2019-03-20T09:22:05.938Z,1030.08
2019-03-20T09:23:06.510Z,1030.13
2019-03-20T09:24:07.127Z,1030.07
2019-03-20T09:25:07.701Z,1030.07
2019-03-20T09:26:08.276Z,1030.12
2019-03-20T09:27:08.850Z,1030.19
2019-03-20T09:28:09.429Z,1030.01
2019-03-20T09:29:18.150Z,1030.03
2019-03-20T09:30:11.565Z,1030.06
2019-03-20T09:31:12.140Z,1030.03
2019-03-20T09:32:12.764Z,1030.03
2019-03-20T09:33:13.340Z,1030.01
2019-03-20T09:34:13.961Z,1029.99
2019-03-20T09:35:14.532Z,1029.95
2019-03-20T09:36:15.161Z,1030.00
2019-03-20T09:37:15.825Z,1029.98
2019-03-20T09:38:16.450Z,1029.99
2019-03-20T09:39:17.023Z,1029.93
2019-03-20T09:40:17.595Z,1029.93
2019-03-20T09:41:18.170Z,1029.91
2019-03-20T09:42:18.743Z,1029.94
2019-03-20T09:43:19.316Z,1029.96
2019-03-20T09:44:19.889Z,1029.91
2019-03-20T09:45:20.512Z,1029.88
2019-03-20T09:46:21.089Z,1029.86
2019-03-20T09:47:21.713Z,1029.93
2019-03-20T09:48:22.289Z,1029.82
2019-03-20T09:49:22.867Z,1029.75
2019-03-20T09:50:23.489Z,1029.85
2019-03-20T09:51:24.116Z,1029.90
2019-03-20T09:52:24.732Z,1029.82
2019-03-20T09:53:25.306Z,1029.88
2019-03-20T09:54:25.933Z,1029.85
2019-03-20T09:55:26.555Z,1029.89
2019-03-20T09:56:27.130Z,1029.79
2019-03-20T09:57:27.704Z,1029.91
2019-03-20T09:58:28.277Z,1029.77
2019-03-20T09:59:28.852Z,1029.86
2019-03-20T10:00:29.430Z,1029.84
2019-03-20T10:01:30.051Z,1029.82
2019-03-20T10:02:30.625Z,1029.80
2019-03-20T10:03:31.205Z,1029.87
2019-03-20T10:04:31.826Z,1029.81
2019-03-20T10:05:32.400Z,1029.80
2019-03-20T10:06:32.971Z,1029.85
2019-03-20T10:07:33.544Z,1029.94
2019-03-20T10:08:34.167Z,1029.93
2019-03-20T10:09:34.743Z,1029.85
2019-03-20T10:10:35.327Z,1029.91
2019-03-20T10:11:35.905Z,1029.86
2019-03-20T10:12:36.487Z,1029.84
2019-03-20T10:13:37.063Z,1029.89
2019-03-20T10:14:37.632Z,1029.81
2019-03-20T10:15:38.211Z,1029.81
2019-03-20T10:16:38.825Z,1029.88
2019-03-20T10:17:39.402Z,1029.87
2019-03-20T10:18:40.028Z,1029.94
2019-03-20T10:19:40.655Z,1029.85
2019-03-20T10:20:41.283Z,1029.91
2019-03-20T10:21:41.862Z,1029.87
2019-03-20T10:22:42.445Z,1029.87
2019-03-20T10:23:43.021Z,1029.87
2019-03-20T10:24:43.659Z,1029.84
2019-03-20T10:25:45.043Z,1029.97
2019-03-20T10:26:45.734Z,1029.89
2019-03-20T10:27:46.313Z,1029.89
2019-03-20T10:28:46.949Z,1029.93
2019-03-20T10:29:47.523Z,1029.88
2019-03-20T10:30:48.102Z,1029.85
2019-03-20T10:31:48.679Z,1029.89
2019-03-20T10:32:49.261Z,1029.94
2019-03-20T10:33:49.839Z,1029.89
2019-03-20T10:34:50.468Z,1029.89
2019-03-20T10:35:51.053Z,1029.90
2019-03-20T10:36:51.629Z,1029.78
2019-03-20T10:37:52.206Z,1029.87
2019-03-20T10:38:52.827Z,1029.79
2019-03-20T10:39:53.434Z,1029.90
2019-03-20T10:40:54.012Z,1029.89
2019-03-20T10:41:54.644Z,1029.88
2019-03-20T10:42:55.273Z,1029.94
2019-03-20T10:43:55.854Z,1029.87
2019-03-20T10:44:56.433Z,1029.89
2019-03-20T10:45:57.011Z,1029.81
2019-03-20T10:46:57.639Z,1029.88
2019-03-20T10:47:58.219Z,1029.87
2019-03-20T10:48:58.812Z,1029.82
2019-03-20T10:49:59.421Z,1029.89
2019-03-20T10:51:00.036Z,1029.86
2019-03-20T10:52:00.614Z,1029.85
2019-03-20T10:53:01.195Z,1029.98
2019-03-20T10:54:01.780Z,1029.91
2019-03-20T10:55:02.356Z,1029.91
2019-03-20T10:56:02.936Z,1029.93
2019-03-20T10:57:03.517Z,1029.82
2019-03-20T10:58:04.155Z,1029.94
2019-03-20T10:59:04.730Z,1029.87
2019-03-20T11:00:05.365Z,1029.79
2019-03-20T11:01:05.948Z,1029.80
2019-03-20T11:02:06.581Z,1029.75
2019-03-20T11:03:07.161Z,1029.78
2019-03-20T11:04:07.797Z,1029.76
2019-03-20T11:05:08.395Z,1029.84
2019-03-20T11:06:08.960Z,1029.83
2019-03-20T11:07:09.543Z,1029.82
2019-03-20T11:08:12.774Z,1029.88
2019-03-20T11:09:18.099Z,1029.88
2019-03-20T11:11:36.821Z,1029.87
2019-03-20T11:12:37.397Z,1029.89
2019-03-20T11:14:39.562Z,1029.92
2019-03-20T11:15:40.145Z,1029.81
2019-03-20T11:16:40.729Z,1029.81
2019-03-20T11:18:43.904Z,1029.85
2019-03-20T11:19:58.249Z,1029.91
2019-03-20T11:20:58.831Z,1029.87
2019-03-20T11:24:30.374Z,1029.82
2019-03-20T11:27:07.984Z,1029.83
2019-03-20T11:30:11.906Z,1029.74
2019-03-20T11:31:12.491Z,1029.70
2019-03-20T11:32:14.322Z,1029.80
2019-03-20T11:33:14.664Z,1029.79
2019-03-20T11:34:15.256Z,1029.74
2019-03-20T11:35:15.849Z,1029.70
2019-03-20T11:36:16.429Z,1029.76
2019-03-20T11:37:17.013Z,1029.73
2019-03-20T11:38:18.259Z,1029.75
2019-03-20T11:39:29.316Z,1029.65
2019-03-20T11:40:19.475Z,1029.65
2019-03-20T11:41:20.066Z,1029.66
2019-03-20T11:42:20.659Z,1029.67
2019-03-20T11:43:21.251Z,1029.68
2019-03-20T11:44:21.844Z,1029.63
2019-03-20T11:45:23.719Z,1029.59
2019-03-20T11:46:24.075Z,1029.59
2019-03-20T11:47:24.670Z,1029.54
2019-03-20T11:48:25.263Z,1029.60
2019-03-20T11:49:25.853Z,1029.61
2019-03-20T11:50:26.450Z,1029.64
2019-03-20T11:51:27.092Z,1029.65
2019-03-20T11:52:27.686Z,1029.65
2019-03-20T11:53:28.332Z,1029.64
2019-03-20T11:54:28.975Z,1029.55
2019-03-20T11:55:29.618Z,1029.57
2019-03-20T11:56:30.210Z,1029.55
2019-03-20T11:57:30.803Z,1029.53
2019-03-20T11:58:31.393Z,1029.45
2019-03-20T11:59:31.986Z,1029.48
2019-03-20T12:00:32.582Z,1029.56
2019-03-20T12:01:33.222Z,1029.49
2019-03-20T12:02:33.818Z,1029.47
2019-03-20T12:03:34.463Z,1029.50
2019-03-20T12:04:35.055Z,1029.40
2019-03-20T12:05:35.699Z,1029.46
2019-03-20T12:06:36.333Z,1029.39
2019-03-20T12:07:36.923Z,1029.41
2019-03-20T12:08:37.519Z,1029.37
2019-03-20T12:09:41.296Z,1029.35
2019-03-20T12:10:39.700Z,1029.43
2019-03-20T12:11:45.956Z,1029.36
2019-03-20T12:12:42.030Z,1029.39
2019-03-20T12:13:42.622Z,1029.40
2019-03-20T12:14:43.219Z,1029.36
2019-03-20T12:15:43.862Z,1029.36
2019-03-20T12:16:44.457Z,1029.26
2019-03-20T12:17:45.052Z,1029.29
2019-03-20T12:18:45.651Z,1029.32
2019-03-20T12:19:46.245Z,1029.34
2019-03-20T12:20:46.833Z,1029.33
2019-03-20T12:21:47.432Z,1029.29
2019-03-20T12:22:48.067Z,1029.23
2019-03-20T12:23:48.712Z,1029.29